Time;durP1;ratioP1;P1;durP2;ratioP2;P2;SDS_P1;SDS_P2;PMS_P1;PMS_P2;Temp;Humidity;BMP_temperature;BMP_pressure;BME280_temperature;BME280_humidity;BME280_pressure;Samples;Min_cycle;Max_cycle;Signal;HPM_P1;HPM_P2
2021/12/09 00:00:15;;;;;;;20.48;12.50;;;;;;;;;;6219114;28;20179;-65
2021/12/09 00:03:17;;;;;;;21.77;13.00;;;;;;;;;;6219180;28;20551;-65
2021/12/09 00:06:23;;;;;;;20.40;12.85;;;;;;;;;;6216606;28;20436;-65
2021/12/09 00:09:25;;;;;;;18.63;10.57;;;;;;;;;;6234372;28;20624;-65
2021/12/09 00:12:28;;;;;;;18.85;10.75;;;;;;;;;;6229028;28;20641;-65
2021/12/09 00:15:29;;;;;;;15.93;10.43;;;;;;;;;;6224529;28;20064;-65
2021/12/09 00:18:31;;;;;;;17.67;11.32;;;;;;;;;;6230992;28;20156;-65
2021/12/09 00:21:33;;;;;;;16.20;10.70;;;;;;;;;;6219721;28;20086;-66
2021/12/09 00:24:35;;;;;;;69.10;31.20;;;;;;;;;;6239317;28;20192;-65
2021/12/09 00:27:38;;;;;;;34.97;17.50;;;;;;;;;;6220681;28;20046;-66
2021/12/09 00:30:40;;;;;;;18.20;10.73;;;;;;;;;;6218095;28;20034;-66
2021/12/09 00:33:44;;;;;;;39.05;18.30;;;;;;;;;;6223240;28;20061;-66
2021/12/09 00:36:57;;;;;;;;;;;;;;;;;;6220441;28;20149;-66
2021/12/09 00:39:58;;;;;;;26.40;14.77;;;;;;;;;;6227487;28;19929;-66
2021/12/09 00:43:02;;;;;;;81.72;35.85;;;;;;;;;;6220696;28;20509;-66
2021/12/09 00:46:04;;;;;;;73.03;31.48;;;;;;;;;;6215438;28;20060;-66
2021/12/09 00:49:07;;;;;;;20.10;12.20;;;;;;;;;;6234520;28;20196;-66
2021/12/09 00:52:09;;;;;;;19.25;11.40;;;;;;;;;;6221493;28;20046;-66
2021/12/09 00:55:11;;;;;;;17.15;10.52;;;;;;;;;;6224001;28;20100;-65
2021/12/09 00:58:14;;;;;;;18.45;11.32;;;;;;;;;;6224728;28;20129;-66
2021/12/09 01:01:16;;;;;;;17.65;10.82;;;;;;;;;;6215705;28;20182;-66
2021/12/09 01:04:18;;;;;;;19.42;12.25;;;;;;;;;;6220238;28;20827;-66
2021/12/09 01:07:19;;;;;;;20.33;11.48;;;;;;;;;;6223784;28;20052;-66
2021/12/09 01:10:21;;;;;;;21.02;12.52;;;;;;;;;;6227147;28;20037;-66
2021/12/09 01:13:24;;;;;;;22.48;13.73;;;;;;;;;;6223916;28;20049;-66
2021/12/09 01:16:26;;;;;;;20.95;12.85;;;;;;;;;;6218671;28;20053;-66
2021/12/09 01:19:28;;;;;;;23.00;13.45;;;;;;;;;;6229459;28;20042;-66
2021/12/09 01:22:36;;;;;;;26.70;15.63;;;;;;;;;;6220527;28;20527;-66
2021/12/09 01:25:38;;;;;;;25.38;15.30;;;;;;;;;;6218695;28;20042;-66
2021/12/09 01:28:47;;;;;;;24.60;15.02;;;;;;;;;;6228095;28;20064;-66
2021/12/09 01:31:55;;;;;;;27.50;16.13;;;;;;;;;;6219061;28;20386;-66
2021/12/09 01:34:57;;;;;;;27.45;16.08;;;;;;;;;;6222043;28;20062;-65
2021/12/09 01:38:01;;;;;;;28.42;16.25;;;;;;;;;;6217806;28;20144;-65
2021/12/09 01:41:03;;;;;;;30.48;16.10;;;;;;;;;;6217364;28;20060;-66
2021/12/09 01:44:07;;;;;;;28.25;15.45;;;;;;;;;;6226665;28;20095;-66
2021/12/09 01:47:08;;;;;;;30.10;16.30;;;;;;;;;;6214453;28;20111;-66
2021/12/09 01:50:11;;;;;;;31.75;16.40;;;;;;;;;;6218796;28;20111;-65
2021/12/09 01:53:12;;;;;;;32.47;16.55;;;;;;;;;;6224503;28;20049;-66
2021/12/09 01:56:20;;;;;;;31.98;17.63;;;;;;;;;;6216879;28;20042;-66
2021/12/09 01:59:23;;;;;;;31.30;17.45;;;;;;;;;;6223585;28;20045;-66
2021/12/09 02:02:25;;;;;;;33.75;18.42;;;;;;;;;;6211864;28;20505;-66
2021/12/09 02:05:28;;;;;;;32.00;17.13;;;;;;;;;;6216206;28;20038;-65
2021/12/09 02:08:30;;;;;;;33.03;18.13;;;;;;;;;;6227544;28;20053;-66
2021/12/09 02:11:31;;;;;;;36.67;19.45;;;;;;;;;;6224257;28;20046;-65
2021/12/09 02:14:37;;;;;;;36.25;20.13;;;;;;;;;;6228798;28;20394;-66
2021/12/09 02:17:38;;;;;;;39.33;19.00;;;;;;;;;;6207090;28;20061;-66
2021/12/09 02:20:42;;;;;;;40.63;19.83;;;;;;;;;;6216355;28;20188;-66
2021/12/09 02:23:46;;;;;;;38.15;20.45;;;;;;;;;;6228257;28;20100;-66
2021/12/09 02:26:50;;;;;;;46.30;21.17;;;;;;;;;;6221279;28;20053;-66
2021/12/09 02:29:52;;;;;;;50.13;24.27;;;;;;;;;;6224653;28;20461;-66
2021/12/09 02:32:54;;;;;;;53.42;25.52;;;;;;;;;;6205969;28;20050;-66
2021/12/09 02:35:57;;;;;;;51.35;24.00;;;;;;;;;;6212195;28;20041;-66
2021/12/09 02:38:58;;;;;;;54.05;25.30;;;;;;;;;;6224385;28;20054;-66
2021/12/09 02:42:00;;;;;;;48.53;23.67;;;;;;;;;;6213506;28;20405;-66
2021/12/09 02:45:02;;;;;;;49.10;24.00;;;;;;;;;;6229736;28;20405;-66
2021/12/09 02:48:04;;;;;;;45.33;22.15;;;;;;;;;;6212514;28;20061;-65
2021/12/09 02:51:07;;;;;;;45.22;22.85;;;;;;;;;;6214424;28;20038;-66
2021/12/09 02:54:11;;;;;;;49.22;24.13;;;;;;;;;;6230488;28;20096;-65
2021/12/09 02:57:13;;;;;;;44.90;22.00;;;;;;;;;;6222968;28;20045;-66
2021/12/09 03:00:15;;;;;;;50.15;24.33;;;;;;;;;;6222003;28;20542;-66
2021/12/09 03:03:17;;;;;;;51.83;24.92;;;;;;;;;;6220588;28;20047;-66
2021/12/09 03:06:23;;;;;;;62.58;26.67;;;;;;;;;;6227457;28;20498;-65
2021/12/09 03:09:27;;;;;;;57.97;27.67;;;;;;;;;;6229918;28;20620;-66
2021/12/09 03:12:29;;;;;;;;;;;;;;;;;;6218799;28;20532;-66
2021/12/09 03:15:34;;;;;;;57.47;25.17;;;;;;;;;;6214476;28;20035;-66
2021/12/09 03:18:38;;;;;;;;;;;;;;;;;;6220999;28;20473;-65
2021/12/09 03:21:43;;;;;;;55.72;24.02;;;;;;;;;;6216570;28;19947;-65
2021/12/09 03:24:45;;;;;;;56.38;23.23;;;;;;;;;;6218468;28;20054;-66
2021/12/09 03:27:47;;;;;;;54.88;26.65;;;;;;;;;;6214701;28;20037;-65
2021/12/09 03:30:48;;;;;;;54.35;26.00;;;;;;;;;;6208379;28;20057;-65
2021/12/09 03:33:50;;;;;;;55.40;25.02;;;;;;;;;;6221600;28;20095;-65
2021/12/09 03:36:53;;;;;;;56.72;27.10;;;;;;;;;;6219191;28;20050;-65
2021/12/09 03:39:56;;;;;;;57.63;25.15;;;;;;;;;;6228342;28;20529;-65
2021/12/09 03:42:57;;;;;;;52.78;26.13;;;;;;;;;;6221313;28;20056;-65
2021/12/09 03:45:59;;;;;;;53.38;25.48;;;;;;;;;;6221437;28;20054;-65
2021/12/09 03:49:01;;;;;;;56.20;25.75;;;;;;;;;;6224718;28;20106;-66
2021/12/09 03:52:05;;;;;;;51.05;25.80;;;;;;;;;;6219076;28;20204;-66
2021/12/09 03:55:09;;;;;;;50.78;24.50;;;;;;;;;;6224390;28;20129;-65
2021/12/09 03:58:10;;;;;;;53.70;25.63;;;;;;;;;;6227973;28;20053;-66
2021/12/09 04:01:12;;;;;;;56.00;26.85;;;;;;;;;;6214391;28;20256;-65
2021/12/09 04:04:14;;;;;;;52.42;25.70;;;;;;;;;;6227438;28;20045;-65
2021/12/09 04:07:18;;;;;;;57.33;26.48;;;;;;;;;;6219944;28;20568;-66
2021/12/09 04:10:19;;;;;;;57.42;27.35;;;;;;;;;;6224714;28;20136;-66
2021/12/09 04:13:21;;;;;;;59.75;27.05;;;;;;;;;;6226436;28;20105;-66
2021/12/09 04:16:23;;;;;;;60.58;27.20;;;;;;;;;;6216707;28;20072;-66
2021/12/09 04:19:24;;;;;;;54.25;26.33;;;;;;;;;;6228361;28;20057;-66
2021/12/09 04:22:27;;;;;;;58.30;26.35;;;;;;;;;;6222477;28;20057;-66
2021/12/09 04:25:29;;;;;;;54.70;26.60;;;;;;;;;;6221032;28;20999;-65
2021/12/09 04:28:31;;;;;;;66.00;29.90;;;;;;;;;;6233732;28;20053;-65
2021/12/09 04:31:33;;;;;;;58.33;28.83;;;;;;;;;;6212790;28;20042;-66
2021/12/09 04:34:34;;;;;;;61.42;27.02;;;;;;;;;;6225491;28;20046;-66
2021/12/09 04:37:38;;;;;;;66.00;30.35;;;;;;;;;;6225076;28;20045;-66
2021/12/09 04:40:40;;;;;;;67.23;30.17;;;;;;;;;;6224450;28;20042;-65
2021/12/09 04:43:42;;;;;;;62.35;30.00;;;;;;;;;;6230701;28;20094;-66
2021/12/09 04:46:44;;;;;;;65.38;30.35;;;;;;;;;;6214694;28;20072;-65
2021/12/09 04:49:46;;;;;;;64.57;31.08;;;;;;;;;;6223788;28;20140;-66
2021/12/09 04:52:49;;;;;;;59.70;28.95;;;;;;;;;;6220698;28;20046;-66
2021/12/09 04:55:50;;;;;;;61.70;28.98;;;;;;;;;;6218957;28;20806;-65
2021/12/09 04:58:52;;;;;;;57.63;27.45;;;;;;;;;;6225226;28;20049;-66
2021/12/09 05:01:54;;;;;;;56.55;28.98;;;;;;;;;;6216441;28;20101;-66
2021/12/09 05:04:55;;;;;;;56.70;28.42;;;;;;;;;;6223761;28;20046;-66
2021/12/09 05:07:58;;;;;;;62.38;28.65;;;;;;;;;;6201966;28;20054;-65
2021/12/09 05:11:06;;;;;;;54.95;27.65;;;;;;;;;;6220624;28;20501;-66
2021/12/09 05:14:08;;;;;;;58.80;27.70;;;;;;;;;;6222084;28;20434;-66
2021/12/09 05:17:10;;;;;;;53.65;25.75;;;;;;;;;;6216993;28;20136;-66
2021/12/09 05:20:12;;;;;;;51.88;25.60;;;;;;;;;;6224781;28;20447;-66
2021/12/09 05:23:16;;;;;;;47.78;23.55;;;;;;;;;;6224883;28;20045;-65
2021/12/09 05:26:19;;;;;;;49.60;25.60;;;;;;;;;;6220403;28;20563;-65
2021/12/09 05:29:28;;;;;;;50.15;24.80;;;;;;;;;;6227588;28;20482;-65
2021/12/09 05:32:30;;;;;;;54.90;26.95;;;;;;;;;;6215327;28;20057;-65
2021/12/09 05:35:33;;;;;;;46.38;24.52;;;;;;;;;;6216898;28;20044;-65
2021/12/09 05:38:35;;;;;;;49.70;24.85;;;;;;;;;;6233048;28;20138;-66
2021/12/09 05:41:37;;;;;;;49.47;26.00;;;;;;;;;;6220085;28;20062;-65
2021/12/09 05:44:40;;;;;;;50.25;25.30;;;;;;;;;;6229000;28;20076;-65
2021/12/09 05:47:42;;;;;;;55.78;27.30;;;;;;;;;;6215642;28;20053;-66
2021/12/09 05:50:44;;;;;;;59.10;26.30;;;;;;;;;;6217564;28;20453;-65
2021/12/09 05:53:47;;;;;;;53.58;25.10;;;;;;;;;;6226951;28;20099;-65
2021/12/09 05:56:50;;;;;;;60.50;25.88;;;;;;;;;;6222699;28;20646;-66
2021/12/09 05:59:54;;;;;;;52.53;24.80;;;;;;;;;;6238803;28;20052;-65
2021/12/09 06:02:55;;;;;;;54.60;25.10;;;;;;;;;;6215735;28;20049;-65
2021/12/09 06:05:57;;;;;;;55.47;26.23;;;;;;;;;;6216619;28;20049;-66
2021/12/09 06:09:00;;;;;;;54.85;27.10;;;;;;;;;;6224090;28;20729;-65
2021/12/09 06:12:02;;;;;;;54.50;25.95;;;;;;;;;;6229800;28;20168;-66
2021/12/09 06:15:04;;;;;;;58.15;26.10;;;;;;;;;;6232686;28;20045;-66
2021/12/09 06:18:05;;;;;;;55.42;25.27;;;;;;;;;;6219578;28;20075;-66
2021/12/09 06:21:07;;;;;;;55.22;24.83;;;;;;;;;;6216201;28;20039;-66
2021/12/09 06:24:10;;;;;;;54.30;25.00;;;;;;;;;;6221225;28;20442;-66
2021/12/09 06:27:12;;;;;;;51.55;24.23;;;;;;;;;;6217759;28;20037;-66
2021/12/09 06:30:15;;;;;;;52.80;24.17;;;;;;;;;;6224089;28;20739;-66
2021/12/09 06:33:16;;;;;;;56.08;22.50;;;;;;;;;;6218308;28;20064;-65
2021/12/09 06:36:18;;;;;;;59.60;24.38;;;;;;;;;;6211077;28;20736;-65
2021/12/09 06:39:21;;;;;;;61.45;25.60;;;;;;;;;;6223099;28;20049;-66
2021/12/09 06:42:23;;;;;;;53.47;24.58;;;;;;;;;;6215800;28;20041;-65
2021/12/09 06:45:25;;;;;;;54.63;24.65;;;;;;;;;;6211274;28;20045;-66
2021/12/09 06:48:26;;;;;;;57.95;25.65;;;;;;;;;;6216076;28;20508;-65
2021/12/09 06:51:28;;;;;;;63.75;25.67;;;;;;;;;;6215139;28;20053;-65
2021/12/09 06:54:32;;;;;;;52.72;24.60;;;;;;;;;;6221536;28;20106;-65
2021/12/09 06:57:33;;;;;;;56.03;23.95;;;;;;;;;;6218662;28;20064;-65
2021/12/09 07:00:40;;;;;;;62.33;26.85;;;;;;;;;;6206005;28;20033;-66
2021/12/09 07:03:42;;;;;;;50.13;23.83;;;;;;;;;;6220713;28;20394;-66
2021/12/09 07:06:43;;;;;;;60.92;26.27;;;;;;;;;;6216207;28;20054;-65
2021/12/09 07:09:46;;;;;;;58.00;25.55;;;;;;;;;;6224133;28;20505;-65
2021/12/09 07:12:48;;;;;;;57.78;25.50;;;;;;;;;;6215899;28;20510;-65
2021/12/09 07:15:50;;;;;;;55.00;25.70;;;;;;;;;;6208525;28;20099;-65
2021/12/09 07:18:52;;;;;;;52.35;22.42;;;;;;;;;;6222418;28;20045;-65
2021/12/09 07:21:53;;;;;;;53.17;23.40;;;;;;;;;;6218504;28;20042;-65
2021/12/09 07:24:56;;;;;;;57.13;24.95;;;;;;;;;;6228279;28;20095;-65
2021/12/09 07:27:58;;;;;;;53.30;23.95;;;;;;;;;;6217052;28;20041;-65
2021/12/09 07:31:00;;;;;;;50.95;22.52;;;;;;;;;;6216133;28;20072;-65
2021/12/09 07:34:02;;;;;;;51.67;23.80;;;;;;;;;;6222381;28;20080;-65
2021/12/09 07:37:05;;;;;;;49.42;22.65;;;;;;;;;;6216876;28;20450;-65
2021/12/09 07:40:11;;;;;;;46.03;21.73;;;;;;;;;;6220878;28;20152;-65
2021/12/09 07:43:13;;;;;;;48.65;21.45;;;;;;;;;;6219629;28;20051;-65
2021/12/09 07:46:14;;;;;;;49.00;20.05;;;;;;;;;;6213286;28;20041;-66
2021/12/09 07:49:16;;;;;;;46.85;20.55;;;;;;;;;;6223293;28;20053;-65
2021/12/09 07:52:18;;;;;;;43.78;19.65;;;;;;;;;;6213136;28;20104;-65
2021/12/09 07:55:23;;;;;;;48.17;21.70;;;;;;;;;;6219120;28;20095;-66
2021/12/09 07:58:25;;;;;;;43.08;19.85;;;;;;;;;;6225655;28;20433;-66
2021/12/09 08:01:26;;;;;;;44.97;21.13;;;;;;;;;;6212636;28;20049;-66
2021/12/09 08:04:28;;;;;;;51.45;22.63;;;;;;;;;;6222494;28;20636;-66
2021/12/09 08:07:29;;;;;;;58.83;23.67;;;;;;;;;;6208745;28;21156;-66
2021/12/09 08:10:33;;;;;;;54.75;21.98;;;;;;;;;;6218283;28;20095;-66
2021/12/09 08:13:34;;;;;;;49.80;22.55;;;;;;;;;;6227138;28;20107;-67
2021/12/09 08:16:37;;;;;;;51.83;22.65;;;;;;;;;;6211626;28;20127;-66
2021/12/09 08:19:39;;;;;;;51.35;22.20;;;;;;;;;;6226496;28;20049;-67
2021/12/09 08:22:41;;;;;;;49.55;22.50;;;;;;;;;;6214930;28;20111;-66
2021/12/09 08:25:45;;;;;;;52.80;23.45;;;;;;;;;;6216145;28;20049;-67
2021/12/09 08:28:46;;;;;;;50.40;20.38;;;;;;;;;;6227365;28;20053;-67
2021/12/09 08:31:48;;;;;;;46.72;21.40;;;;;;;;;;6217116;28;20057;-66
2021/12/09 08:34:50;;;;;;;52.85;22.85;;;;;;;;;;6226538;28;20042;-66
2021/12/09 08:37:54;;;;;;;48.05;21.80;;;;;;;;;;6223575;28;20139;-66
2021/12/09 08:40:57;;;;;;;47.38;21.05;;;;;;;;;;6216552;28;20046;-67
2021/12/09 08:43:59;;;;;;;47.38;22.00;;;;;;;;;;6229164;28;20060;-67
2021/12/09 08:47:00;;;;;;;54.83;23.02;;;;;;;;;;6214557;28;20424;-67
2021/12/09 08:50:02;;;;;;;51.75;22.45;;;;;;;;;;6222494;28;20539;-67
2021/12/09 08:53:07;;;;;;;46.22;22.77;;;;;;;;;;6217938;28;20685;-66
2021/12/09 08:56:10;;;;;;;41.40;20.17;;;;;;;;;;6217025;28;20064;-67
2021/12/09 08:59:12;;;;;;;44.83;19.85;;;;;;;;;;6231123;28;20049;-66
2021/12/09 09:02:14;;;;;;;40.78;18.60;;;;;;;;;;6208520;28;20046;-66
2021/12/09 09:05:16;;;;;;;40.83;18.38;;;;;;;;;;6222284;28;20128;-67
2021/12/09 09:08:18;;;;;;;43.83;19.83;;;;;;;;;;6224969;28;20152;-66
2021/12/09 09:11:21;;;;;;;45.13;21.48;;;;;;;;;;6216720;28;20041;-67
2021/12/09 09:14:23;;;;;;;39.63;19.60;;;;;;;;;;6229330;28;20060;-66
2021/12/09 09:17:24;;;;;;;42.58;19.88;;;;;;;;;;6210265;28;20088;-66
2021/12/09 09:20:28;;;;;;;44.13;19.98;;;;;;;;;;6217976;28;20065;-66
2021/12/09 09:23:30;;;;;;;48.07;21.00;;;;;;;;;;6225694;28;20095;-66
2021/12/09 09:26:33;;;;;;;46.92;20.50;;;;;;;;;;6224894;28;20136;-66
2021/12/09 09:29:37;;;;;;;43.35;19.27;;;;;;;;;;6225191;28;20184;-66
2021/12/09 09:32:38;;;;;;;44.28;20.08;;;;;;;;;;6230541;28;20052;-66
2021/12/09 09:35:41;;;;;;;37.22;17.95;;;;;;;;;;6214596;28;20211;-67
2021/12/09 09:38:42;;;;;;;36.65;17.92;;;;;;;;;;6227857;28;20148;-66
2021/12/09 09:41:54;;;;;;;45.83;19.40;;;;;;;;;;6221303;28;20180;-66
2021/12/09 09:44:58;;;;;;;40.17;19.08;;;;;;;;;;6226692;28;20042;-66
2021/12/09 09:48:00;;;;;;;41.42;18.45;;;;;;;;;;6212366;28;20053;-66
2021/12/09 09:51:05;;;;;;;38.60;19.05;;;;;;;;;;6216380;28;20164;-66
2021/12/09 09:54:07;;;;;;;42.63;18.88;;;;;;;;;;6231125;28;20486;-66
2021/12/09 09:57:11;;;;;;;38.30;18.52;;;;;;;;;;6219921;28;22774;-67
2021/12/09 10:00:14;;;;;;;37.53;18.20;;;;;;;;;;6225775;28;20197;-67
2021/12/09 10:03:17;;;;;;;36.83;18.13;;;;;;;;;;6216396;28;20128;-67
2021/12/09 10:06:21;;;;;;;36.88;18.50;;;;;;;;;;6209971;28;20049;-66
2021/12/09 10:09:23;;;;;;;38.05;17.95;;;;;;;;;;6227056;28;20091;-67
2021/12/09 10:12:27;;;;;;;35.92;17.92;;;;;;;;;;6226189;28;20119;-66
2021/12/09 10:15:51;;;;;;;37.07;19.27;;;;;;;;;;6223244;28;20060;-67
2021/12/09 10:18:56;;;;;;;37.03;18.57;;;;;;;;;;6220534;28;20057;-66
2021/12/09 10:22:08;;;;;;;36.47;19.08;;;;;;;;;;6213993;28;20250;-66
2021/12/09 10:25:19;;;;;;;37.78;18.05;;;;;;;;;;6220202;28;20608;-67
2021/12/09 10:28:26;;;;;;;37.38;18.80;;;;;;;;;;6213830;28;20192;-67
2021/12/09 10:31:31;;;;;;;38.85;18.15;;;;;;;;;;6212000;28;20358;-67
2021/12/09 10:34:35;;;;;;;34.88;17.20;;;;;;;;;;6228721;28;20509;-67
2021/12/09 10:37:38;;;;;;;37.33;18.15;;;;;;;;;;6216251;28;20052;-67
2021/12/09 10:40:40;;;;;;;37.83;18.17;;;;;;;;;;6217443;28;20058;-67
2021/12/09 10:43:50;;;;;;;40.90;19.95;;;;;;;;;;6228748;28;20065;-68
2021/12/09 10:47:05;;;;;;;41.58;17.73;;;;;;;;;;6210429;28;20180;-67
2021/12/09 10:50:12;;;;;;;;;;;;;;;;;;6220887;28;20064;-67
2021/12/09 10:53:32;;;;;;;38.50;19.25;;;;;;;;;;6225604;28;20015;-67
2021/12/09 10:56:35;;;;;;;37.70;19.38;;;;;;;;;;6208437;28;20063;-67
2021/12/09 10:59:38;;;;;;;36.20;18.17;;;;;;;;;;6224297;28;20058;-67
2021/12/09 11:02:57;;;;;;;36.70;18.27;;;;;;;;;;6206655;28;20132;-67
2021/12/09 11:06:02;;;;;;;40.55;18.88;;;;;;;;;;6212744;28;20192;-67
2021/12/09 11:09:07;;;;;;;37.53;19.33;;;;;;;;;;6222985;28;20168;-67
2021/12/09 11:12:26;;;;;;;36.13;18.85;;;;;;;;;;6227421;28;20053;-67
2021/12/09 11:15:49;;;;;;;35.30;18.77;;;;;;;;;;6216638;28;20858;-67
2021/12/09 11:18:53;;;;;;;37.92;18.83;;;;;;;;;;6221314;28;20162;-67
2021/12/09 11:22:00;;;;;;;36.20;18.50;;;;;;;;;;6215156;28;20378;-67
2021/12/09 11:25:04;;;;;;;36.70;18.52;;;;;;;;;;6226455;28;20468;-67
2021/12/09 11:28:10;;;;;;;37.75;18.20;;;;;;;;;;6219575;28;20113;-67
2021/12/09 11:31:17;;;;;;;33.55;18.30;;;;;;;;;;6210294;28;20191;-67
2021/12/09 11:34:22;;;;;;;35.45;18.38;;;;;;;;;;6225804;28;20064;-67
2021/12/09 11:37:41;;;;;;;34.22;17.88;;;;;;;;;;6214280;28;20509;-67
2021/12/09 11:40:47;;;;;;;35.55;18.23;;;;;;;;;;6222939;28;20458;-67
2021/12/09 11:43:48;;;;;;;33.95;18.15;;;;;;;;;;6224228;28;20564;-67
2021/12/09 11:46:51;;;;;;;32.47;18.10;;;;;;;;;;6202926;28;20049;-67
2021/12/09 11:49:55;;;;;;;34.40;18.00;;;;;;;;;;6216366;28;20861;-67
2021/12/09 11:52:59;;;;;;;37.72;19.75;;;;;;;;;;6214798;28;20053;-67
2021/12/09 11:56:05;;;;;;;39.70;19.90;;;;;;;;;;6223137;28;20187;-67
2021/12/09 12:07:08;;;;;;;35.17;18.80;;;;;;;;;;6219561;28;20046;-67
2021/12/09 12:13:40;;;;;;;32.03;17.88;;;;;;;;;;6231565;28;20492;-67
2021/12/09 12:16:59;;;;;;;37.55;19.73;;;;;;;;;;6215872;28;20045;-67
2021/12/09 12:20:29;;;;;;;43.35;21.02;;;;;;;;;;6225937;28;20053;-67
2021/12/09 12:23:40;;;;;;;36.83;20.55;;;;;;;;;;6230828;28;20058;-67
2021/12/09 12:26:53;;;;;;;38.40;21.33;;;;;;;;;;6223570;28;20058;-66
2021/12/09 12:30:15;;;;;;;40.80;22.00;;;;;;;;;;6235332;28;20413;-66
2021/12/09 12:33:30;;;;;;;42.53;22.17;;;;;;;;;;6226988;28;20120;-66
2021/12/09 12:37:09;;;;;;;40.65;21.25;;;;;;;;;;6229173;28;20069;-66
2021/12/09 12:40:14;;;;;;;42.58;22.70;;;;;;;;;;6232201;28;20045;-68
2021/12/09 12:43:25;;;;;;;39.78;21.70;;;;;;;;;;6228254;28;20046;-66
2021/12/09 12:46:43;;;;;;;46.35;23.48;;;;;;;;;;6216267;28;20037;-67
2021/12/09 12:50:08;;;;;;;40.53;22.80;;;;;;;;;;6226233;28;20129;-68
2021/12/09 12:53:31;;;;;;;49.08;24.30;;;;;;;;;;6225981;28;20192;-67
2021/12/09 12:56:41;;;;;;;49.42;26.42;;;;;;;;;;6222476;28;20079;-67
2021/12/09 12:59:45;;;;;;;49.05;25.42;;;;;;;;;;6227207;28;20050;-67
2021/12/09 13:03:13;;;;;;;52.35;25.45;;;;;;;;;;6212250;28;20042;-67
2021/12/09 13:06:40;;;;;;;53.00;25.40;;;;;;;;;;6219122;28;20165;-67
2021/12/09 13:09:51;;;;;;;56.28;27.42;;;;;;;;;;6227942;28;20053;-67
2021/12/09 13:13:15;;;;;;;49.50;26.10;;;;;;;;;;6221597;28;20054;-68
2021/12/09 13:16:26;;;;;;;47.38;25.17;;;;;;;;;;6219246;28;20173;-67
2021/12/09 13:19:41;;;;;;;47.55;23.98;;;;;;;;;;6234214;28;20340;-67
2021/12/09 13:22:43;;;;;;;44.80;24.75;;;;;;;;;;6228772;28;20334;-67
2021/12/09 13:26:16;;;;;;;43.92;23.63;;;;;;;;;;6233815;28;20045;-67
2021/12/09 13:29:35;;;;;;;45.78;24.17;;;;;;;;;;6243105;28;20050;-68
2021/12/09 13:33:03;;;;;;;42.47;22.73;;;;;;;;;;6211746;28;20050;-68
2021/12/09 13:40:06;;;;;;;43.08;23.35;;;;;;;;;;6195748;28;20084;-69
2021/12/09 13:46:57;;;;;;;45.65;24.65;;;;;;;;;;6168133;28;20049;-68
2021/12/09 13:50:16;;;;;;;47.85;25.92;;;;;;;;;;6227632;28;20049;-68
2021/12/09 13:56:36;;;;;;;44.35;25.08;;;;;;;;;;6219817;28;20049;-68
2021/12/09 13:59:38;;;;;;;47.60;24.08;;;;;;;;;;6231345;28;20136;-68
2021/12/09 14:02:49;;;;;;;47.95;23.63;;;;;;;;;;6207333;28;20049;-68
2021/12/09 14:05:54;;;;;;;44.38;23.15;;;;;;;;;;6220810;28;20049;-68
2021/12/09 14:08:57;;;;;;;47.47;25.08;;;;;;;;;;6229981;28;20049;-68
2021/12/09 14:12:00;;;;;;;46.05;24.77;;;;;;;;;;6222886;28;20054;-68
2021/12/09 14:15:07;;;;;;;43.97;23.88;;;;;;;;;;6224521;28;20061;-68
2021/12/09 14:18:18;;;;;;;47.75;24.13;;;;;;;;;;6222480;28;20038;-68
2021/12/09 14:21:20;;;;;;;46.03;24.95;;;;;;;;;;6217985;28;20054;-68
2021/12/09 14:24:24;;;;;;;44.70;24.25;;;;;;;;;;6227000;28;20556;-68
2021/12/09 14:27:26;;;;;;;51.08;23.83;;;;;;;;;;6219065;28;20132;-68
2021/12/09 14:30:30;;;;;;;51.83;24.48;;;;;;;;;;6220635;28;20037;-68
2021/12/09 14:33:33;;;;;;;48.75;23.38;;;;;;;;;;6220078;28;20469;-68
2021/12/09 14:36:35;;;;;;;45.75;24.52;;;;;;;;;;6228389;28;21103;-68
2021/12/09 14:39:36;;;;;;;50.65;24.92;;;;;;;;;;6231106;28;20069;-68
2021/12/09 14:42:49;;;;;;;45.03;22.95;;;;;;;;;;6220294;28;20051;-68
2021/12/09 14:45:58;;;;;;;46.10;23.15;;;;;;;;;;6209344;28;20543;-68
2021/12/09 14:49:03;;;;;;;43.97;21.50;;;;;;;;;;6223853;28;20089;-68
2021/12/09 14:52:05;;;;;;;46.58;22.58;;;;;;;;;;6214662;28;20665;-68
2021/12/09 14:55:12;;;;;;;39.00;20.13;;;;;;;;;;6225324;28;20049;-68
2021/12/09 14:58:15;;;;;;;46.55;21.48;;;;;;;;;;6229300;28;20057;-68
2021/12/09 15:01:21;;;;;;;43.85;22.63;;;;;;;;;;6211062;28;20568;-68
2021/12/09 15:04:32;;;;;;;47.55;22.00;;;;;;;;;;6224305;28;20095;-68
2021/12/09 15:07:37;;;;;;;45.38;22.77;;;;;;;;;;6213351;28;20056;-68
2021/12/09 15:10:39;;;;;;;43.25;21.23;;;;;;;;;;6220379;28;20140;-68
2021/12/09 15:13:43;;;;;;;44.13;21.38;;;;;;;;;;6230837;28;20057;-68
2021/12/09 15:16:45;;;;;;;;;;;;;;;;;;6209847;28;20408;-68
2021/12/09 15:20:03;;;;;;;41.53;20.75;;;;;;;;;;6224510;28;20444;-68
2021/12/09 15:23:10;;;;;;;42.92;20.98;;;;;;;;;;6216935;28;20045;-68
2021/12/09 15:26:17;;;;;;;42.08;22.55;;;;;;;;;;6211687;28;20073;-68
2021/12/09 15:29:22;;;;;;;45.58;22.55;;;;;;;;;;6232471;28;20065;-68
2021/12/09 15:32:23;;;;;;;48.17;23.73;;;;;;;;;;6207763;28;20064;-68
2021/12/09 15:35:27;;;;;;;44.53;23.27;;;;;;;;;;6216290;28;20128;-68
2021/12/09 15:38:29;;;;;;;42.50;22.85;;;;;;;;;;6226133;28;20392;-68
2021/12/09 15:41:33;;;;;;;46.22;22.13;;;;;;;;;;6223934;28;20555;-68
2021/12/09 15:44:38;;;;;;;48.88;22.05;;;;;;;;;;6235295;28;20061;-68
2021/12/09 15:47:40;;;;;;;46.13;22.48;;;;;;;;;;6210570;28;20054;-68
2021/12/09 15:50:43;;;;;;;44.00;22.45;;;;;;;;;;6215620;28;20056;-68
2021/12/09 15:53:50;;;;;;;49.10;23.30;;;;;;;;;;6226145;28;20049;-67
2021/12/09 15:56:55;;;;;;;47.20;22.70;;;;;;;;;;6224076;28;20092;-67
2021/12/09 15:59:57;;;;;;;49.60;22.00;;;;;;;;;;6231100;28;20172;-67
2021/12/09 16:03:01;;;;;;;43.67;22.40;;;;;;;;;;6216976;28;20144;-67
2021/12/09 16:06:05;;;;;;;52.95;24.27;;;;;;;;;;6215555;28;20054;-67
2021/12/09 16:09:12;;;;;;;53.13;21.98;;;;;;;;;;6229856;28;20083;-67
2021/12/09 16:12:17;;;;;;;48.67;22.33;;;;;;;;;;6219166;28;20048;-67
2021/12/09 16:15:20;;;;;;;45.95;22.08;;;;;;;;;;6225040;28;20045;-68
2021/12/09 16:18:27;;;;;;;49.33;22.80;;;;;;;;;;6220848;28;20052;-67
2021/12/09 16:21:44;;;;;;;44.92;21.92;;;;;;;;;;6225085;28;20465;-67
2021/12/09 16:24:47;;;;;;;45.75;21.73;;;;;;;;;;6232504;28;20084;-68
2021/12/09 16:27:50;;;;;;;48.87;22.53;;;;;;;;;;6221146;28;20422;-68
2021/12/09 16:30:52;;;;;;;41.05;20.05;;;;;;;;;;6220157;28;20053;-68
2021/12/09 16:33:54;;;;;;;46.67;22.35;;;;;;;;;;6226456;28;20053;-67
2021/12/09 16:36:57;;;;;;;46.80;22.70;;;;;;;;;;6218335;28;20053;-67
2021/12/09 16:39:59;;;;;;;44.57;20.83;;;;;;;;;;6223802;28;21074;-67
2021/12/09 16:43:02;;;;;;;45.38;20.20;;;;;;;;;;6222212;28;20057;-67
2021/12/09 16:46:05;;;;;;;45.35;21.13;;;;;;;;;;6216858;28;20041;-68
2021/12/09 16:49:07;;;;;;;45.80;21.05;;;;;;;;;;6227314;28;20470;-67
2021/12/09 16:52:10;;;;;;;45.30;21.50;;;;;;;;;;6217934;28;21328;-67
2021/12/09 16:55:16;;;;;;;41.45;20.40;;;;;;;;;;6224719;28;20053;-68
2021/12/09 16:58:18;;;;;;;37.92;18.25;;;;;;;;;;6225946;28;20491;-68
2021/12/09 17:01:19;;;;;;;42.42;21.02;;;;;;;;;;6212322;28;20066;-68
2021/12/09 17:04:22;;;;;;;46.25;19.95;;;;;;;;;;6226347;28;20264;-68
2021/12/09 17:07:25;;;;;;;40.60;20.50;;;;;;;;;;6211818;28;20109;-68
2021/12/09 17:10:29;;;;;;;46.05;20.75;;;;;;;;;;6217049;28;20617;-68
2021/12/09 17:13:31;;;;;;;43.05;19.13;;;;;;;;;;6230330;28;20053;-68
2021/12/09 17:16:33;;;;;;;44.90;21.25;;;;;;;;;;6219887;28;20045;-68
2021/12/09 17:19:36;;;;;;;45.67;20.45;;;;;;;;;;6227148;28;20284;-68
2021/12/09 17:22:39;;;;;;;49.08;21.38;;;;;;;;;;6221993;28;20033;-68
2021/12/09 17:25:43;;;;;;;50.50;22.05;;;;;;;;;;6225195;28;20827;-68
2021/12/09 17:28:45;;;;;;;53.88;22.90;;;;;;;;;;6235623;28;20114;-68
2021/12/09 17:31:49;;;;;;;50.17;22.60;;;;;;;;;;6213214;28;20140;-68
2021/12/09 17:34:50;;;;;;;52.47;22.73;;;;;;;;;;6223788;28;20049;-68
2021/12/09 17:37:53;;;;;;;48.00;22.60;;;;;;;;;;6217126;28;20049;-68
2021/12/09 17:40:55;;;;;;;46.70;22.20;;;;;;;;;;6225454;28;20622;-68
2021/12/09 17:43:57;;;;;;;60.80;22.05;;;;;;;;;;6226083;28;20046;-68
2021/12/09 17:47:01;;;;;;;48.22;21.55;;;;;;;;;;6213511;28;20076;-68
2021/12/09 17:50:03;;;;;;;44.10;20.73;;;;;;;;;;6210122;28;20188;-68
2021/12/09 17:53:08;;;;;;;44.75;20.77;;;;;;;;;;6218616;28;20167;-68
2021/12/09 17:56:13;;;;;;;39.35;19.23;;;;;;;;;;6219955;28;20641;-68
2021/12/09 17:59:14;;;;;;;45.80;22.63;;;;;;;;;;6216788;28;20046;-68
2021/12/09 18:02:16;;;;;;;48.95;20.52;;;;;;;;;;6204684;28;20363;-68
2021/12/09 18:05:20;;;;;;;43.70;21.05;;;;;;;;;;6216846;28;20047;-68
2021/12/09 18:08:23;;;;;;;50.15;21.85;;;;;;;;;;6223060;28;20060;-68
2021/12/09 18:11:27;;;;;;;44.05;21.25;;;;;;;;;;6215454;28;20077;-68
2021/12/09 18:14:29;;;;;;;;;;;;;;;;;;6226750;28;20055;-68
2021/12/09 18:17:35;;;;;;;40.63;18.95;;;;;;;;;;6208752;28;20014;-68